createdAt,value
2018-09-02T00:00:31.554Z,14.81
2018-09-02T00:02:58.803Z,14.82
2018-09-02T00:05:27.108Z,14.84
2018-09-02T00:07:54.315Z,14.81
2018-09-02T00:10:21.542Z,14.81
2018-09-02T00:12:48.769Z,14.77
2018-09-02T00:15:16.029Z,14.78
2018-09-02T00:17:44.825Z,14.79
2018-09-02T00:23:02.380Z,14.84
2018-09-02T00:25:29.603Z,14.86
2018-09-02T00:27:56.856Z,14.90
2018-09-02T00:30:24.130Z,14.90
2018-09-02T00:32:51.378Z,14.92
2018-09-02T00:35:18.610Z,14.99
2018-09-02T00:37:45.842Z,15.03
2018-09-02T00:40:13.065Z,15.07
2018-09-02T00:42:40.325Z,15.07
2018-09-02T00:45:08.307Z,15.05
2018-09-02T00:47:35.545Z,15.05
2018-09-02T00:50:02.793Z,15.04
2018-09-02T00:52:30.041Z,15.03
2018-09-02T00:54:57.284Z,15.05
2018-09-02T00:57:24.532Z,15.08
2018-09-02T00:59:51.759Z,15.07
2018-09-02T01:02:19.007Z,15.05
2018-09-02T01:04:46.223Z,14.99
2018-09-02T01:07:13.468Z,14.91
2018-09-02T01:09:40.689Z,14.86
2018-09-02T01:12:07.942Z,14.80
2018-09-02T01:14:35.187Z,14.76
2018-09-02T01:17:03.058Z,14.69
2018-09-02T01:19:30.297Z,14.62
2018-09-02T01:21:57.535Z,14.52
2018-09-02T01:24:24.734Z,14.43
2018-09-02T01:26:51.983Z,14.29
2018-09-02T01:29:19.188Z,14.22
2018-09-02T01:31:46.426Z,14.18
2018-09-02T01:34:13.632Z,14.22
2018-09-02T01:36:40.901Z,14.27
2018-09-02T01:39:08.479Z,14.31
2018-09-02T01:41:37.995Z,14.37
2018-09-02T01:44:05.418Z,14.37
2018-09-02T01:46:32.728Z,14.38
2018-09-02T01:48:59.938Z,14.33
2018-09-02T01:51:27.165Z,14.32
2018-09-02T01:53:54.403Z,14.28
2018-09-02T01:56:21.619Z,14.28
2018-09-02T01:58:48.875Z,14.27
2018-09-02T02:01:16.102Z,14.21
2018-09-02T02:03:43.332Z,14.21
2018-09-02T02:06:10.559Z,14.26
2018-09-02T02:08:37.804Z,14.33
2018-09-02T02:11:05.021Z,14.42
2018-09-02T02:13:32.257Z,14.46
2018-09-02T02:15:59.478Z,14.50
2018-09-02T02:18:26.737Z,14.54
2018-09-02T02:20:53.954Z,14.58
2018-09-02T02:23:21.227Z,14.62
2018-09-02T02:25:48.435Z,14.63
2018-09-02T02:28:15.678Z,14.62
2018-09-02T02:30:42.909Z,14.63
2018-09-02T02:33:10.136Z,14.63
2018-09-02T02:35:37.537Z,14.57
2018-09-02T02:38:04.968Z,14.61
2018-09-02T02:40:32.250Z,14.58
2018-09-02T02:42:59.496Z,14.57
2018-09-02T02:45:26.741Z,14.56
2018-09-02T02:47:54.003Z,14.50
2018-09-02T02:50:21.230Z,14.50
2018-09-02T02:52:54.234Z,14.52
2018-09-02T02:55:21.776Z,14.54
2018-09-02T02:57:49.038Z,14.49
2018-09-02T03:00:16.276Z,14.45
2018-09-02T03:02:43.532Z,14.34
2018-09-02T03:05:10.858Z,14.28
2018-09-02T03:07:38.222Z,14.29
2018-09-02T03:10:05.491Z,14.26
2018-09-02T03:12:32.763Z,14.19
2018-09-02T03:14:59.999Z,14.19
2018-09-02T03:17:27.253Z,14.20
2018-09-02T03:19:55.728Z,14.25
2018-09-02T03:22:24.523Z,14.26
2018-09-02T03:24:52.802Z,14.34
2018-09-02T03:27:20.039Z,14.36
2018-09-02T03:29:47.519Z,14.39
2018-09-02T03:32:14.767Z,14.42
2018-09-02T03:34:42.007Z,14.43
2018-09-02T03:37:09.252Z,14.45
2018-09-02T03:39:36.496Z,14.43
2018-09-02T03:42:03.749Z,14.43
2018-09-02T03:44:32.635Z,14.41
2018-09-02T03:46:59.873Z,14.40
2018-09-02T03:49:27.139Z,14.45
2018-09-02T03:51:54.356Z,14.45
2018-09-02T03:54:21.619Z,14.42
2018-09-02T03:56:48.839Z,14.45
2018-09-02T03:59:16.084Z,14.45
2018-09-02T04:01:43.359Z,14.39
2018-09-02T04:04:10.587Z,14.43
2018-09-02T04:06:37.809Z,14.37
2018-09-02T04:09:07.730Z,14.37
2018-09-02T04:11:34.983Z,14.47
2018-09-02T04:14:02.264Z,14.54
2018-09-02T04:16:29.491Z,14.54
2018-09-02T04:18:56.739Z,14.56
2018-09-02T04:21:23.961Z,14.51
2018-09-02T04:23:51.207Z,14.47
2018-09-02T04:26:18.413Z,14.37
2018-09-02T04:28:45.663Z,14.28
2018-09-02T04:31:12.865Z,14.11
2018-09-02T04:33:40.171Z,14.06
2018-09-02T04:36:07.373Z,14.02
2018-09-02T04:38:34.636Z,13.98
2018-09-02T04:41:01.871Z,14.01
2018-09-02T04:43:29.119Z,13.93
2018-09-02T04:45:56.361Z,14.00
2018-09-02T04:48:23.620Z,14.00
2018-09-02T04:50:50.855Z,13.99
2018-09-02T04:53:18.071Z,14.03
2018-09-02T04:55:45.320Z,13.97
2018-09-02T04:58:12.569Z,14.03
2018-09-02T05:00:39.819Z,14.12
2018-09-02T05:03:07.046Z,14.16
2018-09-02T05:05:34.293Z,14.20
2018-09-02T05:08:01.535Z,14.18
2018-09-02T05:10:28.954Z,14.16
2018-09-02T05:12:56.186Z,14.17
2018-09-02T05:15:23.438Z,14.21
2018-09-02T05:17:50.732Z,14.21
2018-09-02T05:20:17.994Z,14.15
2018-09-02T05:22:45.287Z,14.21
2018-09-02T05:25:12.531Z,14.17
2018-09-02T05:27:39.807Z,14.22
2018-09-02T05:30:07.135Z,14.25
2018-09-02T05:32:34.958Z,14.26
2018-09-02T05:35:02.583Z,14.26
2018-09-02T05:37:29.827Z,14.25
2018-09-02T05:39:57.079Z,14.22
2018-09-02T05:42:31.163Z,14.26
2018-09-02T05:44:58.417Z,14.29
2018-09-02T05:47:27.800Z,14.33
2018-09-02T05:49:55.058Z,14.30
2018-09-02T05:52:22.270Z,14.31
2018-09-02T05:54:49.510Z,14.26
2018-09-02T05:57:16.740Z,14.23
2018-09-02T05:59:43.961Z,14.25
2018-09-02T06:02:11.226Z,14.24
2018-09-02T06:04:39.257Z,14.24
2018-09-02T06:07:06.527Z,14.20
2018-09-02T06:09:33.880Z,14.17
2018-09-02T06:12:01.168Z,14.19
2018-09-02T06:14:28.538Z,14.17
2018-09-02T06:16:56.044Z,14.16
2018-09-02T06:19:30.058Z,14.20
2018-09-02T06:21:57.298Z,14.16
2018-09-02T06:24:24.695Z,14.18
2018-09-02T06:26:52.330Z,14.15
2018-09-02T06:29:19.965Z,14.14
2018-09-02T06:31:47.893Z,14.21
2018-09-02T06:34:15.502Z,14.31
2018-09-02T06:36:43.092Z,14.38
2018-09-02T06:39:11.851Z,14.42
2018-09-02T06:41:39.454Z,14.48
2018-09-02T06:44:07.388Z,14.49
2018-09-02T06:46:35.139Z,14.53
2018-09-02T06:49:05.404Z,14.50
2018-09-02T06:51:33.128Z,14.44
2018-09-02T06:54:00.821Z,14.46
2018-09-02T06:56:28.324Z,14.51
2018-09-02T06:58:55.779Z,14.50
2018-09-02T07:01:23.624Z,14.63
2018-09-02T07:03:51.457Z,14.69
2018-09-02T07:06:19.112Z,14.74
2018-09-02T07:08:46.633Z,14.71
2018-09-02T07:11:14.290Z,14.79
2018-09-02T07:13:42.239Z,14.78
2018-09-02T07:16:09.777Z,14.78
2018-09-02T07:18:37.118Z,14.80
2018-09-02T07:21:05.243Z,14.65
2018-09-02T07:23:32.907Z,14.66
2018-09-02T07:26:00.235Z,14.70
2018-09-02T07:28:27.957Z,14.74
2018-09-02T07:30:55.530Z,14.76
2018-09-02T07:33:23.091Z,14.73
2018-09-02T07:35:50.789Z,14.55
2018-09-02T07:38:18.593Z,14.55
2018-09-02T07:40:46.165Z,14.50
2018-09-02T07:43:13.759Z,14.41
2018-09-02T07:45:42.040Z,14.54
2018-09-02T07:48:09.748Z,14.64
2018-09-02T07:50:37.241Z,14.70
2018-09-02T07:53:05.472Z,14.69
2018-09-02T07:55:33.140Z,14.68
2018-09-02T07:58:01.207Z,14.63
2018-09-02T08:00:28.493Z,14.50
2018-09-02T08:02:55.712Z,14.48
2018-09-02T08:05:23.381Z,14.58
2018-09-02T08:07:50.688Z,14.68
2018-09-02T08:10:17.966Z,14.66
2018-09-02T08:12:45.365Z,14.67
2018-09-02T08:15:12.599Z,14.81
2018-09-02T08:17:39.868Z,14.84
2018-09-02T08:20:07.659Z,14.95
2018-09-02T08:22:35.756Z,15.03
2018-09-02T08:25:03.265Z,15.03
2018-09-02T08:27:30.649Z,14.93
2018-09-02T08:29:57.917Z,14.80
2018-09-02T08:32:25.221Z,14.81
2018-09-02T08:34:52.526Z,14.83
2018-09-02T08:37:19.810Z,14.70
2018-09-02T08:39:47.106Z,14.64
2018-09-02T08:42:14.409Z,14.63
2018-09-02T08:44:42.230Z,14.55
2018-09-02T08:47:09.767Z,14.56
2018-09-02T08:49:37.038Z,14.49
2018-09-02T08:52:04.504Z,14.37
2018-09-02T08:54:32.353Z,14.31
2018-09-02T08:56:59.644Z,14.30
2018-09-02T08:59:27.035Z,14.33
2018-09-02T09:01:54.309Z,14.38
2018-09-02T09:04:21.904Z,14.38
2018-09-02T09:06:49.372Z,14.37
2018-09-02T09:09:17.583Z,14.22
2018-09-02T09:11:46.097Z,14.23
2018-09-02T09:14:13.517Z,14.15
2018-09-02T09:16:56.807Z,14.17
2018-09-02T09:19:24.067Z,14.09
2018-09-02T09:21:51.425Z,14.11
2018-09-02T09:24:18.689Z,14.12
2018-09-02T09:26:45.968Z,14.08
2018-09-02T09:29:14.204Z,14.12
2018-09-02T09:31:41.758Z,14.02
2018-09-02T09:34:09.136Z,14.12
2018-09-02T09:36:36.422Z,14.13
2018-09-02T09:39:05.524Z,14.01
2018-09-02T09:41:33.202Z,14.07
2018-09-02T09:44:00.819Z,14.05
2018-09-02T09:46:28.085Z,14.07
2018-09-02T09:48:55.826Z,14.16
2018-09-02T09:51:24.106Z,14.19
2018-09-02T09:53:51.508Z,14.13
2018-09-02T09:56:18.779Z,14.08
2018-09-02T09:58:46.099Z,14.06
2018-09-02T10:01:13.354Z,14.11
2018-09-02T10:03:42.122Z,14.12
2018-09-02T10:06:09.387Z,14.22
2018-09-02T10:08:36.907Z,14.15
2018-09-02T10:11:04.558Z,14.17
2018-09-02T10:13:31.933Z,14.24
2018-09-02T10:15:59.190Z,14.20
2018-09-02T10:18:26.467Z,14.17
2018-09-02T10:20:53.723Z,14.27
2018-09-02T10:23:20.979Z,14.16
2018-09-02T10:25:48.190Z,14.17
2018-09-02T10:28:15.466Z,14.06
2018-09-02T10:30:42.720Z,14.12
2018-09-02T10:33:10.137Z,14.21
2018-09-02T10:35:39.761Z,14.13
2018-09-02T10:38:07.065Z,14.20
2018-09-02T10:40:34.366Z,14.14
2018-09-02T10:43:01.865Z,14.21
2018-09-02T10:45:29.231Z,14.29
2018-09-02T10:47:56.476Z,14.18
2018-09-02T10:50:23.711Z,14.18
2018-09-02T10:52:54.003Z,14.20
2018-09-02T10:55:21.264Z,14.20
2018-09-02T10:57:48.522Z,14.28
2018-09-02T11:00:15.750Z,14.27
2018-09-02T11:02:49.904Z,14.26
2018-09-02T11:05:17.382Z,14.14
2018-09-02T11:07:44.686Z,14.19
2018-09-02T11:10:12.025Z,14.22
2018-09-02T11:12:45.875Z,14.25
2018-09-02T11:15:13.262Z,14.26
2018-09-02T11:17:40.596Z,14.31
2018-09-02T11:20:08.481Z,14.36
2018-09-02T11:22:35.746Z,14.34
2018-09-02T11:25:03.087Z,14.37
2018-09-02T11:27:30.351Z,14.38
2018-09-02T11:29:57.639Z,14.38
2018-09-02T11:32:27.948Z,14.33
2018-09-02T11:34:55.260Z,14.29
2018-09-02T11:37:22.517Z,14.43
2018-09-02T11:39:50.121Z,14.47
2018-09-02T11:42:17.370Z,14.45
2018-09-02T11:44:44.623Z,14.41
2018-09-02T11:47:11.875Z,14.38
2018-09-02T11:49:39.160Z,14.27
2018-09-02T11:52:06.467Z,14.23
2018-09-02T11:54:33.758Z,14.21
2018-09-02T11:57:00.982Z,14.21
2018-09-02T11:59:28.235Z,14.22
2018-09-02T12:01:55.502Z,14.23
2018-09-02T12:04:22.895Z,14.20
2018-09-02T12:06:50.476Z,14.31
2018-09-02T12:09:17.941Z,14.23
2018-09-02T12:11:45.286Z,14.34
2018-09-02T12:14:12.812Z,14.40
2018-09-02T12:16:40.289Z,14.42
2018-09-02T12:19:07.624Z,14.35
2018-09-02T12:21:34.893Z,14.42
2018-09-02T12:24:02.513Z,14.43
2018-09-02T12:26:29.859Z,14.43
2018-09-02T12:28:57.195Z,14.48
2018-09-02T12:31:24.579Z,14.45
2018-09-02T12:33:52.027Z,14.38
2018-09-02T12:36:19.663Z,14.28
2018-09-02T12:38:47.161Z,14.33
2018-09-02T12:41:14.458Z,14.31
2018-09-02T12:43:42.671Z,14.36
2018-09-02T12:46:09.998Z,14.40
2018-09-02T12:48:37.312Z,14.38
2018-09-02T12:51:04.776Z,14.44
2018-09-02T12:53:32.347Z,14.43
2018-09-02T12:55:59.822Z,14.48
2018-09-02T12:58:27.192Z,14.52
2018-09-02T13:00:58.337Z,14.53
2018-09-02T13:03:26.400Z,14.49
2018-09-02T13:05:53.689Z,14.57
2018-09-02T13:08:21.112Z,14.62
2018-09-02T13:10:48.724Z,14.65
2018-09-02T13:13:20.569Z,14.68
2018-09-02T13:15:48.231Z,14.71
2018-09-02T13:18:15.572Z,14.65
2018-09-02T13:20:43.023Z,14.68
2018-09-02T13:23:10.284Z,14.70
2018-09-02T13:25:37.592Z,14.64
2018-09-02T13:28:05.314Z,14.68
2018-09-02T13:30:32.644Z,14.72
2018-09-02T13:33:00.248Z,14.64
2018-09-02T13:35:27.714Z,14.62
2018-09-02T13:37:54.999Z,14.70
2018-09-02T13:40:22.367Z,14.67
2018-09-02T13:42:50.143Z,14.65
2018-09-02T13:45:17.480Z,14.63
2018-09-02T13:47:44.728Z,14.62
2018-09-02T13:50:12.419Z,14.66
2018-09-02T13:52:39.716Z,14.61
2018-09-02T13:55:07.173Z,14.60
2018-09-02T13:57:34.482Z,14.74
2018-09-02T14:00:01.963Z,14.79
2018-09-02T14:02:29.377Z,14.81
2018-09-02T14:04:56.719Z,14.83
2018-09-02T14:07:29.112Z,14.90
2018-09-02T14:09:56.457Z,14.85
2018-09-02T14:12:23.846Z,14.76
2018-09-02T14:14:51.546Z,14.79
2018-09-02T14:17:19.088Z,14.72
2018-09-02T14:19:46.592Z,14.77
2018-09-02T14:22:13.948Z,14.72
2018-09-02T14:24:41.294Z,14.68
2018-09-02T14:27:11.502Z,14.73
2018-09-02T14:29:39.061Z,14.71
2018-09-02T14:32:06.336Z,14.75
2018-09-02T14:34:34.033Z,14.78
2018-09-02T14:37:01.303Z,14.78
2018-09-02T14:39:28.763Z,14.71
2018-09-02T14:41:56.023Z,14.72
2018-09-02T14:44:23.963Z,14.71
2018-09-02T14:46:51.418Z,14.75
2018-09-02T14:49:18.835Z,14.68
2018-09-02T14:51:46.157Z,14.68
2018-09-02T14:54:13.581Z,14.64
2018-09-02T14:56:40.979Z,14.66
2018-09-02T14:59:08.284Z,14.71
2018-09-02T15:01:35.573Z,14.72
2018-09-02T15:04:02.956Z,14.73
2018-09-02T15:06:30.345Z,14.77
2018-09-02T15:08:57.644Z,14.74
2018-09-02T15:11:24.999Z,14.76
2018-09-02T15:13:52.374Z,14.76
2018-09-02T15:16:19.740Z,14.82
2018-09-02T15:18:47.650Z,14.76
2018-09-02T15:21:15.053Z,14.81
2018-09-02T15:23:42.306Z,14.79
2018-09-02T15:26:09.786Z,14.74
2018-09-02T15:28:43.809Z,14.75
2018-09-02T15:31:11.089Z,14.85
2018-09-02T15:33:39.117Z,14.89
2018-09-02T15:36:09.639Z,14.82
2018-09-02T15:38:42.531Z,14.83
2018-09-02T15:41:15.434Z,14.81
2018-09-02T15:43:46.411Z,14.78
2018-09-02T15:46:13.828Z,14.87
2018-09-02T15:48:41.135Z,14.79
2018-09-02T15:51:08.454Z,14.78
2018-09-02T15:53:35.799Z,14.78
2018-09-02T15:56:03.191Z,14.81
2018-09-02T15:58:30.488Z,14.84
2018-09-02T16:00:57.813Z,14.85
2018-09-02T16:03:25.131Z,14.82
2018-09-02T16:05:52.678Z,14.79
2018-09-02T16:08:20.140Z,14.85
2018-09-02T16:10:47.599Z,14.84
2018-09-02T16:13:14.995Z,14.92
2018-09-02T16:15:42.297Z,14.82
2018-09-02T16:18:09.639Z,14.78
2018-09-02T16:20:37.845Z,14.84
2018-09-02T16:23:05.333Z,14.85
2018-09-02T16:25:32.738Z,14.80
2018-09-02T16:28:00.179Z,14.84
2018-09-02T16:30:27.541Z,14.86
2018-09-02T16:32:54.976Z,14.88
2018-09-02T16:35:22.744Z,14.85
2018-09-02T16:37:50.167Z,14.81
2018-09-02T16:40:17.738Z,14.88
2018-09-02T16:42:45.312Z,14.88
2018-09-02T16:45:12.631Z,14.85
2018-09-02T16:47:39.917Z,14.85
2018-09-02T16:50:07.346Z,14.89
2018-09-02T16:52:34.593Z,14.88
2018-09-02T16:55:01.966Z,14.83
2018-09-02T16:57:29.256Z,14.83
2018-09-02T16:59:56.586Z,14.78
2018-09-02T17:02:23.903Z,14.80
2018-09-02T17:04:53.433Z,14.79
2018-09-02T17:07:20.726Z,14.79
2018-09-02T17:09:48.030Z,14.80
2018-09-02T17:12:15.376Z,14.78
2018-09-02T17:14:42.587Z,14.77
2018-09-02T17:17:09.958Z,14.79
2018-09-02T17:19:39.507Z,14.83
2018-09-02T17:22:06.780Z,14.84
2018-09-02T17:24:34.079Z,14.86
2018-09-02T17:27:01.425Z,14.90
2018-09-02T17:29:28.679Z,14.91
2018-09-02T17:31:56.926Z,14.91
2018-09-02T17:34:24.148Z,14.89
2018-09-02T17:36:51.435Z,14.90
2018-09-02T17:39:18.726Z,14.90
2018-09-02T17:41:46.009Z,14.91
2018-09-02T17:44:13.251Z,14.95
2018-09-02T17:46:40.616Z,14.90
2018-09-02T17:49:07.848Z,14.91
2018-09-02T17:51:35.140Z,14.93
2018-09-02T17:54:02.503Z,14.89
2018-09-02T17:56:29.866Z,14.85
2018-09-02T17:58:57.106Z,14.86
2018-09-02T18:01:24.475Z,14.89
2018-09-02T18:03:51.978Z,14.96
2018-09-02T18:06:19.257Z,14.90
2018-09-02T18:08:46.644Z,14.94
2018-09-02T18:11:13.940Z,14.94
2018-09-02T18:13:41.179Z,14.92
2018-09-02T18:16:09.258Z,14.93
2018-09-02T18:18:37.563Z,14.91
2018-09-02T18:21:04.832Z,14.94
2018-09-02T18:23:32.338Z,14.96
2018-09-02T18:25:59.672Z,14.94
2018-09-02T18:28:29.748Z,14.95
2018-09-02T18:30:57.248Z,14.96
2018-09-02T18:33:24.716Z,14.98
2018-09-02T18:35:54.422Z,14.98
2018-09-02T18:38:22.777Z,14.92
2018-09-02T18:40:59.189Z,14.94
2018-09-02T18:43:26.642Z,14.94
2018-09-02T18:45:54.037Z,14.94
2018-09-02T18:48:37.479Z,14.95
2018-09-02T18:51:05.810Z,14.94
2018-09-02T18:53:36.633Z,14.91
2018-09-02T18:56:04.266Z,14.91
2018-09-02T18:58:31.768Z,14.88
2018-09-02T19:01:00.659Z,14.90
2018-09-02T19:03:34.993Z,14.88
2018-09-02T19:06:02.506Z,14.91
2018-09-02T19:08:29.850Z,14.97
2018-09-02T19:10:57.360Z,14.98
2018-09-02T19:13:30.996Z,15.00
2018-09-02T19:15:58.624Z,15.02
2018-09-02T19:18:26.651Z,15.05
2018-09-02T19:21:01.549Z,14.99
2018-09-02T19:23:29.341Z,14.99
2018-09-02T19:25:56.795Z,15.04
2018-09-02T19:28:24.794Z,15.02
2018-09-02T19:30:52.269Z,15.05
2018-09-02T19:33:21.204Z,15.04
2018-09-02T19:35:50.563Z,15.06
2018-09-02T19:38:18.373Z,15.07
2018-09-02T19:40:48.091Z,15.08
2018-09-02T19:43:16.568Z,15.08
2018-09-02T19:45:44.824Z,15.09
2018-09-02T19:48:14.333Z,15.08
2018-09-02T19:50:43.372Z,15.09
2018-09-02T19:53:12.302Z,15.13
2018-09-02T19:55:39.686Z,15.13
2018-09-02T19:58:07.371Z,15.16
2018-09-02T20:00:41.544Z,15.14
2018-09-02T20:03:10.911Z,15.09
2018-09-02T20:05:42.887Z,15.12
2018-09-02T20:08:12.210Z,15.12
2018-09-02T20:10:41.193Z,15.14
2018-09-02T20:13:10.989Z,15.14
2018-09-02T20:15:39.749Z,15.09
2018-09-02T20:18:09.371Z,15.07
2018-09-02T20:20:37.599Z,15.08
2018-09-02T20:23:04.960Z,15.10
2018-09-02T20:25:32.541Z,15.11
2018-09-02T20:28:00.258Z,15.13
2018-09-02T20:30:27.644Z,15.08
2018-09-02T20:32:54.953Z,15.08
2018-09-02T20:35:24.835Z,15.07
2018-09-02T20:38:00.697Z,15.04
2018-09-02T20:40:27.966Z,15.01
2018-09-02T20:43:10.952Z,15.01
2018-09-02T20:45:38.349Z,15.04
2018-09-02T20:48:05.635Z,15.01
2018-09-02T20:50:35.605Z,15.03
2018-09-02T20:53:04.414Z,15.05
2018-09-02T20:55:31.658Z,15.06
2018-09-02T20:57:58.909Z,15.07
2018-09-02T21:00:26.253Z,15.09
2018-09-02T21:02:53.583Z,15.10
2018-09-02T21:05:20.831Z,15.10
2018-09-02T21:07:48.149Z,15.09
2018-09-02T21:10:15.421Z,15.09
2018-09-02T21:12:42.680Z,15.09
2018-09-02T21:15:09.939Z,15.11
2018-09-02T21:17:37.211Z,15.15
2018-09-02T21:20:04.559Z,15.11
2018-09-02T21:22:31.791Z,15.16
2018-09-02T21:24:59.043Z,15.17
2018-09-02T21:27:26.291Z,15.17
2018-09-02T21:29:53.577Z,15.16
2018-09-02T21:32:20.866Z,15.14
2018-09-02T21:34:48.143Z,15.16
2018-09-02T21:37:15.583Z,15.18
2018-09-02T21:39:42.782Z,15.17
2018-09-02T21:42:10.006Z,15.18
2018-09-02T21:44:37.254Z,15.20
2018-09-02T21:47:04.467Z,15.20
2018-09-02T21:49:31.755Z,15.23
2018-09-02T21:51:59.107Z,15.23
2018-09-02T21:54:26.363Z,15.25
2018-09-02T21:56:53.609Z,15.21
2018-09-02T21:59:21.038Z,15.22
2018-09-02T22:01:48.291Z,15.24
2018-09-02T22:04:15.563Z,15.26
2018-09-02T22:06:42.902Z,15.22
2018-09-02T22:09:14.448Z,15.23
2018-09-02T22:11:42.132Z,15.26
2018-09-02T22:14:09.711Z,15.28
2018-09-02T22:16:36.990Z,15.29
2018-09-02T22:19:04.446Z,15.26
2018-09-02T22:21:31.744Z,15.27
2018-09-02T22:23:59.215Z,15.22
2018-09-02T22:26:26.523Z,15.22
2018-09-02T22:28:53.871Z,15.25
2018-09-02T22:31:21.193Z,15.25
2018-09-02T22:33:48.931Z,15.23
2018-09-02T22:36:16.162Z,15.20
2018-09-02T22:38:43.419Z,15.19
2018-09-02T22:41:10.731Z,15.22
2018-09-02T22:43:38.308Z,15.19
2018-09-02T22:46:05.610Z,15.15
2018-09-02T22:48:32.891Z,15.16
2018-09-02T22:51:00.182Z,15.18
2018-09-02T22:53:27.619Z,15.16
2018-09-02T22:55:54.854Z,15.17
2018-09-02T22:58:22.160Z,15.17
2018-09-02T23:00:49.422Z,15.18
2018-09-02T23:03:16.650Z,15.14
2018-09-02T23:05:43.967Z,15.16
2018-09-02T23:08:11.187Z,15.16
2018-09-02T23:10:38.444Z,15.19
2018-09-02T23:13:05.693Z,15.21
2018-09-02T23:15:32.932Z,15.19
2018-09-02T23:18:00.160Z,15.16
2018-09-02T23:20:27.544Z,15.16
2018-09-02T23:22:54.813Z,15.19
2018-09-02T23:25:22.156Z,15.18
2018-09-02T23:27:49.483Z,15.13
2018-09-02T23:30:16.804Z,15.12
2018-09-02T23:32:44.023Z,15.11
2018-09-02T23:35:11.332Z,15.07
2018-09-02T23:37:38.555Z,15.07
2018-09-02T23:40:05.875Z,15.09
2018-09-02T23:42:33.099Z,15.09
2018-09-02T23:45:00.328Z,15.09
2018-09-02T23:47:27.560Z,15.07
2018-09-02T23:49:54.899Z,15.03
2018-09-02T23:52:22.204Z,15.07
2018-09-02T23:54:49.974Z,15.07
2018-09-02T23:57:17.305Z,15.07
2018-09-02T23:59:44.512Z,15.06
